createdAt,value
2023-05-14T00:04:36.704Z,56.04
2023-05-14T00:09:39.434Z,56.46
2023-05-14T00:14:42.177Z,56.84
2023-05-14T00:19:45.006Z,57.34
2023-05-14T00:24:47.756Z,57.88
2023-05-14T00:29:50.858Z,58.03
2023-05-14T00:34:53.541Z,58.62
2023-05-14T00:39:56.174Z,59.45
2023-05-14T00:44:58.900Z,59.83
2023-05-14T00:50:02.926Z,60.43
2023-05-14T00:55:07.411Z,61.59
2023-05-14T01:00:10.991Z,62.79
2023-05-14T01:05:14.208Z,63.20
2023-05-14T01:10:49.284Z,63.74
2023-05-14T01:15:55.448Z,64.56
2023-05-14T01:20:58.309Z,65.44
2023-05-14T01:26:00.975Z,65.57
2023-05-14T01:31:10.720Z,66.41
2023-05-14T01:36:13.867Z,64.81
2023-05-14T01:41:18.332Z,63.61
2023-05-14T01:46:21.213Z,62.68
2023-05-14T01:51:23.834Z,55.98
2023-05-14T01:56:27.184Z,48.78
2023-05-14T02:01:30.118Z,43.09
2023-05-14T02:06:32.963Z,38.49
2023-05-14T02:11:35.628Z,35.14
2023-05-14T02:16:38.630Z,32.17
2023-05-14T02:21:41.549Z,30.01
2023-05-14T02:26:44.157Z,27.41
2023-05-14T02:31:46.870Z,26.40
2023-05-14T02:36:49.761Z,26.03
2023-05-14T02:41:52.544Z,24.91
2023-05-14T02:46:55.337Z,23.96
2023-05-14T02:51:58.441Z,23.13
2023-05-14T02:57:01.108Z,23.42
2023-05-14T03:02:04.032Z,28.39
2023-05-14T03:07:07.516Z,31.35
2023-05-14T03:12:10.170Z,34.71
2023-05-14T03:17:12.825Z,37.21
2023-05-14T03:22:15.823Z,37.85
2023-05-14T03:27:18.468Z,39.30
2023-05-14T03:32:21.598Z,40.04
2023-05-14T03:37:24.765Z,41.68
2023-05-14T03:42:27.555Z,43.46
2023-05-14T03:47:30.448Z,45.16
2023-05-14T03:52:33.355Z,45.63
2023-05-14T03:57:38.458Z,46.09
2023-05-14T04:02:41.334Z,46.61
2023-05-14T04:07:45.986Z,49.84
2023-05-14T04:12:48.711Z,51.46
2023-05-14T04:17:51.545Z,52.08
2023-05-14T04:22:54.845Z,51.81
2023-05-14T04:27:57.551Z,51.36
2023-05-14T04:33:00.354Z,49.89
2023-05-14T04:38:03.260Z,50.66
2023-05-14T04:43:06.470Z,50.62
2023-05-14T04:48:09.593Z,51.42
2023-05-14T04:58:39.401Z,49.64
2023-05-14T05:03:42.145Z,51.01
2023-05-14T05:08:44.832Z,50.00
2023-05-14T05:13:47.521Z,49.83
2023-05-14T05:18:50.210Z,50.07
2023-05-14T05:23:53.043Z,48.96
2023-05-14T05:28:55.761Z,48.73
2023-05-14T05:34:01.707Z,48.08
2023-05-14T05:39:04.857Z,47.96
2023-05-14T05:44:07.578Z,47.69
2023-05-14T05:49:10.304Z,45.95
2023-05-14T05:54:12.951Z,45.76
2023-05-14T05:59:15.664Z,45.29
2023-05-14T06:04:18.568Z,44.09
2023-05-14T06:09:21.340Z,44.15
2023-05-14T06:14:24.116Z,43.74
2023-05-14T06:19:26.812Z,43.89
2023-05-14T06:24:29.417Z,43.20
2023-05-14T06:29:32.136Z,44.14
2023-05-14T06:34:34.888Z,43.03
2023-05-14T06:39:38.083Z,42.58
2023-05-14T06:44:41.382Z,42.29
2023-05-14T06:49:44.252Z,42.51
2023-05-14T06:54:46.913Z,41.82
2023-05-14T06:59:49.558Z,40.34
2023-05-14T07:04:52.798Z,38.84
2023-05-14T07:09:55.503Z,37.03
2023-05-14T07:14:58.191Z,37.87
2023-05-14T07:20:01.176Z,38.48
2023-05-14T07:25:08.033Z,38.96
2023-05-14T07:30:11.080Z,37.38
2023-05-14T07:35:14.223Z,35.87
2023-05-14T07:40:16.859Z,34.56
2023-05-14T07:45:19.569Z,34.81
2023-05-14T07:50:23.686Z,36.05
2023-05-14T07:55:26.566Z,35.88
2023-05-14T08:00:29.346Z,36.55
2023-05-14T08:05:33.146Z,38.93
2023-05-14T08:10:35.935Z,38.22
2023-05-14T08:15:38.624Z,38.20
2023-05-14T08:20:41.519Z,38.54
2023-05-14T08:25:44.173Z,37.31
2023-05-14T08:30:46.932Z,37.22
2023-05-14T08:35:53.280Z,36.27
2023-05-14T08:41:00.152Z,36.75
2023-05-14T08:46:06.135Z,35.79
2023-05-14T08:51:09.683Z,36.06
2023-05-14T08:56:16.286Z,37.66
2023-05-14T09:01:19.250Z,38.27
2023-05-14T09:06:23.803Z,38.60
2023-05-14T09:11:26.487Z,38.45
2023-05-14T09:16:29.824Z,38.70
2023-05-14T09:21:33.595Z,38.38
2023-05-14T09:26:36.419Z,36.78
2023-05-14T09:31:39.320Z,36.42
2023-05-14T09:36:42.197Z,36.40
2023-05-14T09:41:44.971Z,36.86
2023-05-14T09:46:47.978Z,36.69
2023-05-14T09:51:50.994Z,36.13
2023-05-14T09:56:55.599Z,35.85
2023-05-14T10:01:59.173Z,35.86
2023-05-14T10:07:03.400Z,36.48
2023-05-14T10:12:07.085Z,36.77
2023-05-14T10:17:18.385Z,36.08
2023-05-14T10:22:24.141Z,36.28
2023-05-14T10:27:27.090Z,35.46
2023-05-14T10:32:33.206Z,35.00
2023-05-14T10:37:36.348Z,35.33
2023-05-14T10:42:41.083Z,34.37
2023-05-14T10:47:46.809Z,34.74
2023-05-14T10:52:49.593Z,35.67
2023-05-14T10:57:52.713Z,36.14
2023-05-14T11:02:57.735Z,35.80
2023-05-14T11:08:04.049Z,35.52
2023-05-14T11:13:07.342Z,34.89
2023-05-14T11:18:10.885Z,36.61
2023-05-14T11:23:13.788Z,37.10
2023-05-14T11:28:16.503Z,37.18
2023-05-14T11:33:20.491Z,36.92
2023-05-14T11:38:23.234Z,36.14
2023-05-14T11:43:29.528Z,36.15
2023-05-14T11:48:32.721Z,36.25
2023-05-14T11:53:35.798Z,36.10
2023-05-14T11:58:40.116Z,35.28
2023-05-14T12:03:42.985Z,34.59
2023-05-14T12:08:48.422Z,34.93
2023-05-14T12:13:52.936Z,35.20
2023-05-14T12:19:00.389Z,35.28
2023-05-14T12:24:03.214Z,35.31
2023-05-14T12:29:08.980Z,35.47
2023-05-14T12:34:11.603Z,35.56
2023-05-14T12:39:14.366Z,35.71
2023-05-14T12:44:17.184Z,35.04
2023-05-14T12:49:19.975Z,35.49
2023-05-14T12:54:22.659Z,35.23
2023-05-14T12:59:25.541Z,36.12
2023-05-14T13:04:28.317Z,35.66
2023-05-14T13:09:31.052Z,35.99
2023-05-14T13:14:34.035Z,36.29
2023-05-14T13:19:37.159Z,36.02
2023-05-14T13:24:40.016Z,36.90
2023-05-14T13:29:42.615Z,37.01
2023-05-14T13:34:45.304Z,38.00
2023-05-14T13:39:49.532Z,38.75
2023-05-14T13:44:53.905Z,38.86
2023-05-14T13:49:58.693Z,39.69
2023-05-14T13:55:01.762Z,39.82
2023-05-14T14:00:08.352Z,40.08
2023-05-14T14:05:10.994Z,39.80
2023-05-14T14:10:13.638Z,40.20
2023-05-14T14:15:16.377Z,40.22
2023-05-14T14:20:19.070Z,40.34
2023-05-14T14:25:22.065Z,40.13
2023-05-14T14:30:24.944Z,39.73
2023-05-14T14:35:27.625Z,40.23
2023-05-14T14:40:30.396Z,40.25
2023-05-14T14:45:33.091Z,40.30
2023-05-14T14:50:35.770Z,40.64
2023-05-14T14:55:38.445Z,40.68
2023-05-14T15:00:41.303Z,40.59
2023-05-14T15:05:44.092Z,40.14
2023-05-14T15:10:47.029Z,40.17
2023-05-14T15:15:51.131Z,40.04
2023-05-14T15:20:53.947Z,39.91
2023-05-14T15:25:56.691Z,40.03
2023-05-14T15:30:59.362Z,40.67
2023-05-14T15:36:02.312Z,40.07
2023-05-14T15:41:05.688Z,40.17
2023-05-14T15:46:08.452Z,39.81
2023-05-14T15:51:11.272Z,40.13
2023-05-14T15:56:14.060Z,41.94
2023-05-14T16:01:16.896Z,42.73
2023-05-14T16:06:19.887Z,42.75
2023-05-14T16:11:22.606Z,42.09
2023-05-14T16:16:25.540Z,42.79
2023-05-14T16:21:32.975Z,42.64
2023-05-14T16:26:36.003Z,43.13
2023-05-14T16:31:38.776Z,43.10
2023-05-14T16:36:41.589Z,42.92
2023-05-14T16:41:44.201Z,43.64
2023-05-14T16:46:47.011Z,43.67
2023-05-14T16:51:49.760Z,44.19
2023-05-14T16:56:52.674Z,44.82
2023-05-14T17:01:55.385Z,45.52
2023-05-14T17:06:58.264Z,46.36
2023-05-14T17:12:00.990Z,46.61
2023-05-14T17:17:04.136Z,46.94
2023-05-14T17:22:07.507Z,47.80
2023-05-14T17:27:10.245Z,48.41
2023-05-14T17:32:13.167Z,48.71
2023-05-14T17:37:16.266Z,48.63
2023-05-14T17:42:19.033Z,48.34
2023-05-14T17:47:22.473Z,47.55
2023-05-14T17:52:25.118Z,48.61
2023-05-14T17:57:27.983Z,49.47
2023-05-14T18:02:30.847Z,49.95
2023-05-14T18:07:33.583Z,50.17
2023-05-14T18:12:36.302Z,50.54
2023-05-14T18:17:39.088Z,50.32
2023-05-14T18:22:41.767Z,50.07
2023-05-14T18:27:45.261Z,50.31
2023-05-14T18:32:48.582Z,50.74
2023-05-14T18:37:51.810Z,51.25
2023-05-14T18:42:54.512Z,51.96
2023-05-14T18:47:57.384Z,52.24
2023-05-14T18:52:59.993Z,51.66
2023-05-14T18:58:03.092Z,52.10
2023-05-14T19:03:06.250Z,52.13
2023-05-14T19:08:08.951Z,52.68
2023-05-14T19:13:11.901Z,52.75
2023-05-14T19:18:14.887Z,53.13
2023-05-14T19:23:17.826Z,53.42
2023-05-14T19:28:20.730Z,53.47
2023-05-14T19:33:23.366Z,54.51
2023-05-14T19:38:26.103Z,54.84
2023-05-14T19:43:28.758Z,55.17
2023-05-14T19:48:32.313Z,55.72
2023-05-14T19:53:35.064Z,56.37
2023-05-14T19:58:38.068Z,56.13
2023-05-14T20:03:40.792Z,56.12
2023-05-14T20:08:45.412Z,56.36
2023-05-14T20:13:48.122Z,56.61
2023-05-14T20:18:54.013Z,57.09
2023-05-14T20:23:57.512Z,57.16
2023-05-14T20:29:00.103Z,57.71
2023-05-14T20:34:03.841Z,57.64
2023-05-14T20:39:06.766Z,57.82
2023-05-14T20:44:09.410Z,57.97
2023-05-14T20:49:12.133Z,58.34
2023-05-14T20:54:14.772Z,58.73
2023-05-14T20:59:17.532Z,59.27
2023-05-14T21:04:20.424Z,59.84
2023-05-14T21:09:23.934Z,59.53
2023-05-14T21:14:26.671Z,60.08
2023-05-14T21:19:29.316Z,60.53
2023-05-14T21:24:32.025Z,60.32
2023-05-14T21:29:34.767Z,60.81
2023-05-14T21:34:37.375Z,61.06
2023-05-14T21:39:40.120Z,61.48
2023-05-14T21:44:42.842Z,61.27
2023-05-14T21:49:45.717Z,60.84
2023-05-14T21:54:48.348Z,60.64
2023-05-14T21:59:51.192Z,60.97
2023-05-14T22:04:54.188Z,62.36
2023-05-14T22:09:57.005Z,63.14
2023-05-14T22:14:59.709Z,64.54
2023-05-14T22:20:05.630Z,64.97
2023-05-14T22:25:08.806Z,66.14
2023-05-14T22:30:11.906Z,67.04
2023-05-14T22:35:14.759Z,67.63
2023-05-14T22:40:17.461Z,68.59
2023-05-14T22:45:20.075Z,69.13
2023-05-14T22:50:22.702Z,70.43
2023-05-14T22:55:25.722Z,70.69
2023-05-14T23:00:28.671Z,71.56
2023-05-14T23:05:31.648Z,72.10
2023-05-14T23:10:35.747Z,72.84
2023-05-14T23:15:38.906Z,72.70
2023-05-14T23:20:41.633Z,73.58
2023-05-14T23:25:44.312Z,73.78
2023-05-14T23:30:47.027Z,74.43
2023-05-14T23:35:49.980Z,74.42
2023-05-14T23:40:52.713Z,74.79
2023-05-14T23:45:55.767Z,75.44
2023-05-14T23:50:58.500Z,75.95
2023-05-14T23:56:01.393Z,76.18
